Capitol Logistics 3252


MYNN
Lynden Pindling International Airport
Nassau, BS
KMIA
Miami International Airport
Miami, US

Activity Log

Date Flight Route Aircraft Duration
04/14/2020 CPX3252 ZQA FOWEE9 SF34 1h 31m
11/05/2019 CPX652 ZQA FOWEE9 SF34 0h 59m
10/12/2019 CPX652 ZQA FOWEE9 SF34 1h 14m
09/14/2019 CPX652 ZQA FOWEE9 SF34 0h 47m
09/12/2019 CPX652 ZQA FOWEE9 SF34 0h 46m
09/04/2019 CPX652 ZQA FOWEE9 SF34 0h 43m
08/23/2019 CPX652 ZQA FOWEE9 SF34 0h 44m
06/27/2019 CPX652 ZQA FOWEE9 SF34 0h 43m
06/26/2019 CPX652 ZQA FOWEE9 SF34 0h 44m

Route Details

Aircraft Information
Primary: Saab 340AF
Backup: Not Available
Route Data
Distance: 160nm
Sched. Duration: 1h 10m
Avg. Duration: 0h 63m (-46m)
Times Flown: 9
Recm'd Route: ZQA FOWEE9
Planned Altitude: 14,000ft
Origin Wx: MYNN 311300Z 10006KT 9999 FEW030 SCT200 28/22 A3005
Dest. Wx: KMIA 311253Z 12007KT 100V170 10SM SCT022 BKN035 BKN250 28/23 A3003 RMK AO2 SLP170 T02830233
Notes:

Financial History
Total Freight: 47,515lbs
Average Load: 5,279lbs/flt
Fuel Used: 7,298lbs
Avg. Fuel Used: 811lbs/flt
Fuel Expense: $7,079
Avg. Fuel Expense: $787
Avg. Fuel Cost: $0.97/lbs
Total Gross Income: $53,955
Pilot Pay: $1,981
Total Expenses: $6,295
Total Revenue: $38,639
Average Revenue: $5,995.05